createdAt,value
2022-08-03T00:00:41.490Z,47.63
2022-08-03T00:03:11.691Z,47.70
2022-08-03T00:05:40.884Z,47.84
2022-08-03T00:08:29.990Z,48.01
2022-08-03T00:10:58.860Z,47.77
2022-08-03T00:13:27.575Z,47.94
2022-08-03T00:15:56.733Z,48.06
2022-08-03T00:18:27.025Z,48.61
2022-08-03T00:20:55.967Z,48.50
2022-08-03T00:23:24.885Z,48.42
2022-08-03T00:25:53.742Z,48.44
2022-08-03T00:28:22.703Z,48.41
2022-08-03T00:30:57.234Z,48.84
2022-08-03T00:33:27.584Z,48.91
2022-08-03T00:36:07.433Z,49.12
2022-08-03T00:38:36.325Z,49.24
2022-08-03T00:41:05.284Z,48.93
2022-08-03T00:43:34.008Z,48.60
2022-08-03T00:46:02.762Z,49.00
2022-08-03T00:48:33.926Z,48.99
2022-08-03T00:51:03.267Z,48.89
2022-08-03T00:53:32.723Z,49.04
2022-08-03T00:56:01.732Z,48.92
2022-08-03T00:58:30.416Z,48.86
2022-08-03T01:00:59.520Z,48.79
2022-08-03T01:03:28.520Z,48.90
2022-08-03T01:06:01.887Z,49.01
2022-08-03T01:08:37.166Z,49.33
2022-08-03T01:11:09.856Z,49.36
2022-08-03T01:14:02.346Z,49.51
2022-08-03T01:16:35.773Z,49.77
2022-08-03T01:19:14.460Z,49.91
2022-08-03T01:21:59.692Z,50.05
2022-08-03T01:24:35.618Z,50.03
2022-08-03T01:27:08.274Z,49.99
2022-08-03T01:29:52.196Z,49.91
2022-08-03T01:32:59.109Z,49.87
2022-08-03T01:35:13.931Z,49.75
2022-08-03T01:37:44.869Z,49.82
2022-08-03T01:40:15.363Z,49.76
2022-08-03T01:42:45.955Z,49.86
2022-08-03T01:45:17.977Z,49.57
2022-08-03T01:47:49.545Z,49.49
2022-08-03T01:50:22.202Z,49.56
2022-08-03T01:52:51.653Z,49.58
2022-08-03T01:55:21.404Z,49.58
2022-08-03T01:58:05.300Z,49.86
2022-08-03T02:00:37.448Z,49.90
2022-08-03T02:03:08.357Z,49.76
2022-08-03T02:05:37.780Z,49.84
2022-08-03T02:08:07.769Z,49.89
2022-08-03T02:10:37.333Z,49.85
2022-08-03T02:13:08.381Z,49.89
2022-08-03T02:15:38.118Z,49.85
2022-08-03T02:18:10.324Z,49.76
2022-08-03T02:20:40.002Z,49.71
2022-08-03T02:23:08.985Z,49.70
2022-08-03T02:25:41.732Z,49.71
2022-08-03T02:28:12.405Z,49.64
2022-08-03T02:30:43.915Z,49.65
2022-08-03T02:33:18.209Z,49.44
2022-08-03T02:35:48.296Z,49.59
2022-08-03T02:38:20.455Z,49.60
2022-08-03T02:40:50.589Z,50.09
2022-08-03T02:43:21.369Z,49.85
2022-08-03T02:45:51.557Z,49.81
2022-08-03T02:48:24.331Z,49.75
2022-08-03T02:50:53.996Z,50.10
2022-08-03T02:53:23.467Z,50.09
2022-08-03T02:55:53.591Z,50.35
2022-08-03T02:58:24.641Z,50.26
2022-08-03T03:00:54.883Z,49.97
2022-08-03T03:03:26.484Z,50.04
2022-08-03T03:05:57.979Z,50.05
2022-08-03T03:08:29.308Z,50.13
2022-08-03T03:11:20.241Z,50.06
2022-08-03T03:13:49.876Z,50.22
2022-08-03T03:16:19.297Z,50.27
2022-08-03T03:18:49.866Z,50.26
2022-08-03T03:21:20.610Z,50.30
2022-08-03T03:23:50.235Z,50.27
2022-08-03T03:26:19.720Z,50.75
2022-08-03T03:28:48.827Z,50.85
2022-08-03T03:31:17.755Z,51.14
2022-08-03T03:33:46.634Z,51.44
2022-08-03T03:36:16.716Z,51.66
2022-08-03T03:38:45.869Z,52.00
2022-08-03T03:41:14.643Z,51.87
2022-08-03T03:43:44.154Z,51.58
2022-08-03T03:46:13.838Z,51.55
2022-08-03T03:48:42.641Z,51.49
2022-08-03T03:51:11.719Z,51.53
2022-08-03T03:53:42.444Z,51.59
2022-08-03T03:56:11.309Z,51.37
2022-08-03T03:58:40.054Z,51.29
2022-08-03T04:01:09.859Z,51.35
2022-08-03T04:03:38.876Z,51.47
2022-08-03T04:06:25.093Z,51.65
2022-08-03T04:09:13.253Z,51.87
2022-08-03T04:11:44.680Z,51.99
2022-08-03T04:14:16.034Z,52.22
2022-08-03T04:16:47.446Z,51.94
2022-08-03T04:19:22.940Z,52.40
2022-08-03T04:21:53.461Z,52.21
2022-08-03T04:24:29.944Z,52.32
2022-08-03T04:27:00.435Z,52.04
2022-08-03T04:29:30.180Z,52.26
2022-08-03T04:32:01.029Z,52.16
2022-08-03T04:34:32.446Z,52.26
2022-08-03T04:37:03.010Z,52.65
2022-08-03T04:39:34.237Z,52.97
2022-08-03T04:42:07.874Z,53.12
2022-08-03T04:44:38.799Z,53.34
2022-08-03T04:47:07.985Z,53.24
2022-08-03T04:49:37.701Z,52.93
2022-08-03T04:52:08.587Z,52.89
2022-08-03T04:54:42.591Z,53.10
2022-08-03T04:57:22.673Z,53.23
2022-08-03T05:00:01.413Z,52.97
2022-08-03T05:02:32.317Z,53.17
2022-08-03T05:05:01.421Z,52.95
2022-08-03T05:07:35.529Z,52.70
2022-08-03T05:10:15.947Z,53.39
2022-08-03T05:12:46.745Z,53.23
2022-08-03T05:15:16.361Z,52.89
2022-08-03T05:17:45.203Z,52.99
2022-08-03T05:20:18.109Z,53.09
2022-08-03T05:22:48.092Z,53.72
2022-08-03T05:25:20.525Z,53.78
2022-08-03T05:27:51.285Z,53.55
2022-08-03T05:30:30.763Z,53.59
2022-08-03T05:33:03.864Z,53.46
2022-08-03T05:36:02.813Z,53.47
2022-08-03T05:38:23.749Z,53.37
2022-08-03T05:41:21.215Z,53.36
2022-08-03T05:43:48.290Z,53.29
2022-08-03T05:46:17.010Z,53.49
2022-08-03T05:48:45.834Z,53.64
2022-08-03T05:51:14.909Z,53.33
2022-08-03T05:53:44.231Z,53.46
2022-08-03T05:56:16.329Z,53.21
2022-08-03T05:58:46.706Z,53.21
2022-08-03T06:01:16.199Z,53.29
2022-08-03T06:03:45.196Z,53.09
2022-08-03T06:06:14.214Z,53.06
2022-08-03T06:08:43.378Z,53.02
2022-08-03T06:11:12.283Z,53.07
2022-08-03T06:13:42.699Z,53.12
2022-08-03T06:16:11.768Z,53.01
2022-08-03T06:18:41.334Z,53.05
2022-08-03T06:21:14.552Z,53.00
2022-08-03T06:23:54.661Z,53.15
2022-08-03T06:26:25.953Z,53.42
2022-08-03T06:28:56.485Z,53.21
2022-08-03T06:31:32.826Z,53.49
2022-08-03T06:34:31.052Z,53.68
2022-08-03T06:36:52.965Z,53.68
2022-08-03T06:39:23.400Z,53.57
2022-08-03T06:41:53.588Z,53.62
2022-08-03T06:44:23.775Z,53.75
2022-08-03T06:46:53.050Z,53.69
2022-08-03T06:49:22.142Z,53.81
2022-08-03T06:52:03.050Z,53.85
2022-08-03T06:54:36.325Z,53.87
2022-08-03T06:57:05.668Z,53.94
2022-08-03T07:00:08.499Z,53.95
2022-08-03T07:02:24.718Z,54.17
2022-08-03T07:04:58.073Z,54.07
2022-08-03T07:07:27.161Z,54.26
2022-08-03T07:09:57.588Z,53.87
2022-08-03T07:12:27.914Z,54.03
2022-08-03T07:15:01.171Z,54.09
2022-08-03T07:17:34.753Z,54.04
2022-08-03T07:20:06.152Z,54.16
2022-08-03T07:22:35.014Z,54.20
2022-08-03T07:25:06.986Z,54.09
2022-08-03T07:27:36.391Z,54.16
2022-08-03T07:30:09.516Z,54.30
2022-08-03T07:32:50.343Z,54.11
2022-08-03T07:35:24.805Z,54.32
2022-08-03T07:37:55.235Z,54.26
2022-08-03T07:40:26.321Z,54.33
2022-08-03T07:43:00.686Z,54.22
2022-08-03T07:45:31.342Z,54.40
2022-08-03T07:48:00.157Z,54.28
2022-08-03T07:50:28.996Z,54.10
2022-08-03T07:52:59.781Z,54.30
2022-08-03T07:55:28.805Z,54.22
2022-08-03T07:58:05.019Z,54.04
2022-08-03T08:00:35.498Z,54.15
2022-08-03T08:03:04.228Z,54.22
2022-08-03T08:05:33.048Z,54.23
2022-08-03T08:08:02.432Z,54.14
2022-08-03T08:10:34.447Z,54.16
2022-08-03T08:13:03.886Z,54.23
2022-08-03T08:15:33.247Z,54.24
2022-08-03T08:18:03.592Z,54.16
2022-08-03T08:20:34.971Z,54.09
2022-08-03T08:23:19.268Z,53.96
2022-08-03T08:25:58.074Z,53.94
2022-08-03T08:28:32.832Z,53.97
2022-08-03T08:31:02.866Z,53.62
2022-08-03T08:34:02.703Z,53.18
2022-08-03T08:36:24.163Z,53.06
2022-08-03T08:38:52.955Z,53.25
2022-08-03T08:41:21.656Z,52.77
2022-08-03T08:43:50.607Z,51.93
2022-08-03T08:46:23.601Z,52.14
2022-08-03T08:48:55.330Z,51.59
2022-08-03T08:51:50.999Z,51.42
2022-08-03T08:54:19.231Z,50.97
2022-08-03T08:56:48.223Z,50.30
2022-08-03T08:59:17.478Z,50.37
2022-08-03T09:01:46.473Z,50.27
2022-08-03T09:04:16.634Z,49.50
2022-08-03T09:07:04.515Z,49.51
2022-08-03T09:10:08.834Z,48.96
2022-08-03T09:12:42.332Z,48.43
2022-08-03T09:15:32.905Z,48.99
2022-08-03T09:18:02.699Z,48.10
2022-08-03T09:20:33.671Z,48.25
2022-08-03T09:23:19.084Z,48.40
2022-08-03T09:26:00.052Z,48.44
2022-08-03T09:28:56.429Z,48.21
2022-08-03T09:31:30.830Z,48.14
2022-08-03T09:34:01.662Z,47.65
2022-08-03T09:36:41.841Z,47.39
2022-08-03T09:39:12.005Z,47.69
2022-08-03T09:41:41.699Z,47.32
2022-08-03T09:44:24.366Z,46.98
2022-08-03T09:46:55.263Z,46.69
2022-08-03T09:49:24.511Z,46.47
2022-08-03T09:52:32.367Z,46.42
2022-08-03T09:54:44.295Z,46.44
2022-08-03T09:57:21.866Z,46.08
2022-08-03T09:59:53.053Z,45.87
2022-08-03T10:02:25.342Z,46.06
2022-08-03T10:04:54.895Z,45.60
2022-08-03T10:07:25.524Z,45.48
2022-08-03T10:09:55.248Z,45.27
2022-08-03T10:12:25.209Z,45.10
2022-08-03T10:14:54.746Z,45.33
2022-08-03T10:17:23.879Z,45.25
2022-08-03T10:19:52.875Z,45.29
2022-08-03T10:22:23.572Z,45.15
2022-08-03T10:24:56.939Z,44.54
2022-08-03T10:27:26.537Z,44.56
2022-08-03T10:29:56.641Z,44.84
2022-08-03T10:32:29.083Z,44.48
2022-08-03T10:35:04.222Z,44.05
2022-08-03T10:37:56.938Z,44.30
2022-08-03T10:43:22.998Z,44.03
2022-08-03T10:45:52.437Z,42.90
2022-08-03T10:48:21.810Z,43.00
2022-08-03T10:50:51.134Z,42.71
2022-08-03T10:53:35.204Z,42.83
2022-08-03T10:56:19.665Z,42.90
2022-08-03T10:59:08.834Z,41.47
2022-08-03T11:01:58.962Z,42.14
2022-08-03T11:04:29.996Z,42.60
2022-08-03T11:07:17.945Z,42.33
2022-08-03T11:09:48.685Z,41.42
2022-08-03T11:12:30.101Z,41.66
2022-08-03T11:15:02.532Z,41.82
2022-08-03T11:17:46.117Z,41.98
2022-08-03T11:20:38.256Z,42.25
2022-08-03T11:23:07.092Z,42.83
2022-08-03T11:25:54.725Z,42.94
2022-08-03T11:28:29.072Z,42.38
2022-08-03T11:31:32.969Z,41.84
2022-08-03T11:34:04.695Z,40.38
2022-08-03T11:36:54.796Z,40.84
2022-08-03T11:39:23.683Z,40.72
2022-08-03T11:41:52.695Z,41.01
2022-08-03T11:44:36.400Z,41.30
2022-08-03T11:47:07.196Z,40.99
2022-08-03T11:49:38.905Z,41.34
2022-08-03T11:52:09.314Z,40.83
2022-08-03T11:54:38.220Z,41.05
2022-08-03T11:57:06.973Z,41.17
2022-08-03T11:59:38.651Z,41.16
2022-08-03T12:02:09.248Z,40.98
2022-08-03T12:04:50.468Z,40.78
2022-08-03T12:07:25.016Z,40.40
2022-08-03T12:10:08.755Z,39.59
2022-08-03T12:12:37.576Z,39.99
2022-08-03T12:15:07.427Z,39.95
2022-08-03T12:17:39.428Z,40.02
2022-08-03T12:20:09.757Z,39.22
2022-08-03T12:22:39.626Z,38.65
2022-08-03T12:25:09.117Z,39.63
2022-08-03T12:27:38.731Z,40.06
2022-08-03T12:30:08.131Z,39.98
2022-08-03T12:32:38.267Z,40.18
2022-08-03T12:35:07.548Z,40.25
2022-08-03T12:37:37.015Z,40.47
2022-08-03T12:40:10.601Z,40.59
2022-08-03T12:42:40.713Z,40.44
2022-08-03T12:45:39.703Z,39.96
2022-08-03T12:48:13.070Z,39.98
2022-08-03T12:50:42.271Z,40.02
2022-08-03T12:53:11.458Z,40.17
2022-08-03T12:56:05.240Z,40.12
2022-08-03T12:58:33.662Z,39.85
2022-08-03T13:01:04.849Z,39.58
2022-08-03T13:03:43.554Z,39.49
2022-08-03T13:09:31.957Z,39.41
2022-08-03T13:12:08.394Z,39.01
2022-08-03T13:14:37.253Z,39.22
2022-08-03T13:17:07.147Z,38.40
2022-08-03T13:19:38.013Z,38.64
2022-08-03T13:22:13.509Z,38.92
2022-08-03T13:24:42.652Z,38.18
2022-08-03T13:28:01.233Z,38.19
2022-08-03T13:30:01.232Z,37.26
2022-08-03T13:32:30.127Z,37.63
2022-08-03T13:35:00.732Z,37.19
2022-08-03T13:37:29.451Z,37.08
2022-08-03T13:40:02.674Z,37.21
2022-08-03T13:42:32.823Z,37.32
2022-08-03T13:45:02.541Z,38.10
2022-08-03T13:47:31.376Z,37.69
2022-08-03T13:50:03.118Z,37.90
2022-08-03T13:52:33.020Z,37.90
2022-08-03T13:55:01.852Z,38.29
2022-08-03T13:58:06.173Z,38.48
2022-08-03T14:00:28.097Z,38.20
2022-08-03T14:03:09.180Z,39.96
2022-08-03T14:05:43.751Z,40.32
2022-08-03T14:08:13.140Z,39.71
2022-08-03T14:10:43.177Z,40.31
2022-08-03T14:13:12.704Z,39.62
2022-08-03T14:15:49.789Z,39.29
2022-08-03T14:18:27.827Z,36.80
2022-08-03T14:21:05.566Z,37.00
2022-08-03T14:23:37.700Z,36.94
2022-08-03T14:26:07.057Z,35.07
2022-08-03T14:28:36.204Z,35.04
2022-08-03T14:31:08.325Z,34.63
2022-08-03T14:33:44.421Z,33.75
2022-08-03T14:36:14.726Z,34.13
2022-08-03T14:38:43.555Z,33.35
2022-08-03T14:41:19.790Z,33.97
2022-08-03T14:44:01.494Z,34.14
2022-08-03T14:46:32.101Z,34.03
2022-08-03T14:50:33.698Z,34.20
2022-08-03T14:51:51.549Z,32.33
2022-08-03T14:54:23.682Z,33.17
2022-08-03T14:56:52.608Z,34.04
2022-08-03T14:59:21.421Z,32.85
2022-08-03T15:02:02.308Z,33.22
2022-08-03T15:04:33.805Z,33.60
2022-08-03T15:07:04.387Z,31.48
2022-08-03T15:09:33.269Z,31.01
2022-08-03T15:12:02.039Z,30.89
2022-08-03T15:14:33.391Z,30.55
2022-08-03T15:17:03.836Z,29.64
2022-08-03T15:20:02.117Z,30.18
2022-08-03T15:22:25.168Z,30.20
2022-08-03T15:26:27.936Z,29.44
2022-08-03T15:28:03.579Z,29.99
2022-08-03T15:30:37.217Z,30.20
2022-08-03T15:33:06.695Z,28.50
2022-08-03T15:35:35.600Z,30.01
2022-08-03T15:38:09.415Z,29.47
2022-08-03T15:40:38.764Z,29.87
2022-08-03T15:43:08.054Z,29.75
2022-08-03T15:45:37.236Z,29.37
2022-08-03T15:48:06.347Z,29.27
2022-08-03T15:50:35.549Z,27.91
2022-08-03T15:53:04.452Z,27.62
2022-08-03T15:55:34.904Z,26.80
2022-08-03T15:59:03.479Z,26.09
2022-08-03T16:00:52.663Z,27.49
2022-08-03T16:03:21.691Z,27.12
2022-08-03T16:05:50.417Z,27.00
2022-08-03T16:08:19.230Z,26.93
2022-08-03T16:10:49.515Z,28.17
2022-08-03T16:13:19.317Z,28.96
2022-08-03T16:15:49.825Z,28.61
2022-08-03T16:18:18.738Z,29.24
2022-08-03T16:20:47.986Z,28.64
2022-08-03T16:23:18.682Z,27.22
2022-08-03T16:25:50.383Z,28.34
2022-08-03T16:28:19.877Z,28.75
2022-08-03T16:30:49.060Z,29.45
2022-08-03T16:33:18.142Z,28.70
2022-08-03T16:35:47.077Z,28.46
2022-08-03T16:38:19.154Z,29.00
2022-08-03T16:40:52.030Z,29.66
2022-08-03T16:43:23.178Z,28.74
2022-08-03T16:45:52.593Z,28.52
2022-08-03T16:48:21.511Z,27.46
2022-08-03T16:50:50.428Z,28.04
2022-08-03T16:53:33.063Z,27.27
2022-08-03T16:56:11.208Z,26.80
2022-08-03T16:58:42.565Z,27.89
2022-08-03T17:01:21.445Z,27.21
2022-08-03T17:04:01.918Z,27.38
2022-08-03T17:06:35.296Z,27.21
2022-08-03T17:09:08.834Z,27.06
2022-08-03T17:11:46.648Z,27.47
2022-08-03T17:14:17.283Z,28.05
2022-08-03T17:16:54.065Z,27.27
2022-08-03T17:19:24.980Z,27.98
2022-08-03T17:21:58.100Z,27.64
2022-08-03T17:24:30.401Z,27.88
2022-08-03T17:27:02.419Z,28.38
2022-08-03T17:29:33.391Z,28.52
2022-08-03T17:32:10.078Z,28.44
2022-08-03T17:34:43.970Z,28.62
2022-08-03T17:37:49.712Z,28.79
2022-08-03T17:40:03.942Z,28.91
2022-08-03T17:42:34.947Z,29.20
2022-08-03T17:45:06.623Z,29.55
2022-08-03T17:47:41.433Z,29.24
2022-08-03T17:50:25.787Z,29.54
2022-08-03T17:53:07.581Z,29.95
2022-08-03T17:55:55.779Z,29.61
2022-08-03T17:58:38.123Z,29.77
2022-08-03T18:02:06.218Z,29.91
2022-08-03T18:04:30.364Z,30.40
2022-08-03T18:07:11.245Z,30.17
2022-08-03T18:10:04.287Z,30.68
2022-08-03T18:12:37.212Z,30.42
2022-08-03T18:15:21.199Z,30.78
2022-08-03T18:17:55.805Z,30.64
2022-08-03T18:20:40.947Z,30.88
2022-08-03T18:23:24.584Z,31.05
2022-08-03T18:26:04.865Z,30.97
2022-08-03T18:28:35.983Z,31.27
2022-08-03T18:31:07.573Z,31.28
2022-08-03T18:34:18.571Z,31.35
2022-08-03T18:36:30.156Z,31.60
2022-08-03T18:39:02.529Z,31.45
2022-08-03T18:41:35.081Z,31.51
2022-08-03T18:44:08.427Z,31.51
2022-08-03T18:46:47.315Z,31.53
2022-08-03T18:49:29.651Z,31.59
2022-08-03T18:52:03.665Z,31.57
2022-08-03T18:54:45.759Z,31.85
2022-08-03T18:57:19.903Z,31.88
2022-08-03T18:59:53.765Z,31.85
2022-08-03T19:02:30.017Z,31.83
2022-08-03T19:05:04.778Z,31.93
2022-08-03T19:07:36.055Z,32.18
2022-08-03T19:10:06.635Z,32.36
2022-08-03T19:12:40.181Z,32.32
2022-08-03T19:15:12.602Z,32.10
2022-08-03T19:17:50.115Z,32.20
2022-08-03T19:20:25.022Z,32.43
2022-08-03T19:22:55.709Z,32.39
2022-08-03T19:25:34.575Z,32.36
2022-08-03T19:28:06.048Z,32.64
2022-08-03T19:33:32.254Z,32.67
2022-08-03T19:36:26.410Z,32.80
2022-08-03T19:38:57.043Z,32.88
2022-08-03T19:41:31.274Z,33.25
2022-08-03T19:44:11.612Z,33.18
2022-08-03T19:46:53.470Z,33.12
2022-08-03T19:50:04.777Z,33.15
2022-08-03T19:52:16.664Z,33.59
2022-08-03T19:54:53.919Z,33.58
2022-08-03T19:57:24.588Z,33.46
2022-08-03T19:59:54.182Z,33.71
2022-08-03T20:02:27.176Z,33.83
2022-08-03T20:04:59.881Z,33.72
2022-08-03T20:07:30.737Z,33.93
2022-08-03T20:10:01.391Z,33.95
2022-08-03T20:12:39.238Z,33.79
2022-08-03T20:15:11.470Z,34.01
2022-08-03T20:17:56.923Z,33.95
2022-08-03T20:20:29.976Z,34.31
2022-08-03T20:23:00.272Z,34.15
2022-08-03T20:25:37.983Z,34.45
2022-08-03T20:28:13.841Z,34.24
2022-08-03T20:30:47.376Z,34.50
2022-08-03T20:33:18.704Z,34.49
2022-08-03T20:35:50.933Z,34.32
2022-08-03T20:38:20.172Z,34.47
2022-08-03T20:40:59.088Z,34.60
2022-08-03T20:43:28.096Z,34.77
2022-08-03T20:45:59.825Z,34.85
2022-08-03T20:48:48.783Z,35.20
2022-08-03T20:51:49.039Z,34.99
2022-08-03T20:54:22.719Z,35.18
2022-08-03T20:56:58.196Z,35.32
2022-08-03T20:59:36.596Z,35.48
2022-08-03T21:02:08.528Z,35.24
2022-08-03T21:04:38.569Z,35.68
2022-08-03T21:07:19.045Z,35.40
2022-08-03T21:09:52.822Z,35.58
2022-08-03T21:12:28.856Z,35.63
2022-08-03T21:13:02.400Z,32.74
2022-08-03T21:15:02.528Z,35.91
2022-08-03T21:17:40.368Z,35.85
2022-08-03T21:20:10.598Z,35.88
2022-08-03T21:22:44.204Z,35.93
2022-08-03T21:25:15.224Z,36.26
2022-08-03T21:27:44.548Z,35.99
2022-08-03T21:30:15.315Z,36.11
2022-08-03T21:32:46.369Z,36.25
2022-08-03T21:35:15.980Z,36.32
2022-08-03T21:37:47.163Z,36.34
2022-08-03T21:40:17.226Z,36.33
2022-08-03T21:42:46.590Z,36.44
2022-08-03T21:45:17.556Z,36.41
2022-08-03T21:47:46.813Z,36.60
2022-08-03T21:50:15.576Z,36.62
2022-08-03T21:52:45.405Z,36.80
2022-08-03T21:55:18.677Z,37.08
2022-08-03T21:57:52.677Z,36.86
2022-08-03T22:00:23.050Z,36.75
2022-08-03T22:02:53.166Z,37.13
2022-08-03T22:05:42.680Z,36.81
2022-08-03T22:08:14.179Z,36.97
2022-08-03T22:10:46.303Z,37.06
2022-08-03T22:13:43.082Z,37.20
2022-08-03T22:16:08.599Z,37.30
2022-08-03T22:18:38.141Z,37.36
2022-08-03T22:21:07.892Z,37.26
2022-08-03T22:23:40.087Z,37.47
2022-08-03T22:26:12.136Z,37.74
2022-08-03T22:28:41.264Z,37.48
2022-08-03T22:31:30.732Z,37.55
2022-08-03T22:34:00.072Z,37.46
2022-08-03T22:36:30.258Z,37.43
2022-08-03T22:38:59.567Z,37.69
2022-08-03T22:41:30.484Z,37.71
2022-08-03T22:43:59.626Z,37.75
2022-08-03T22:46:34.144Z,37.51
2022-08-03T22:49:03.159Z,37.68
2022-08-03T22:51:32.647Z,37.72
2022-08-03T22:54:01.756Z,37.78
2022-08-03T22:56:35.934Z,37.76
2022-08-03T22:59:40.655Z,38.16
2022-08-03T23:01:57.596Z,37.88
2022-08-03T23:04:27.216Z,38.12
2022-08-03T23:06:57.070Z,38.04
2022-08-03T23:09:25.806Z,38.03
2022-08-03T23:11:57.070Z,37.95
2022-08-03T23:14:26.764Z,38.27
2022-08-03T23:16:56.496Z,38.06
2022-08-03T23:19:27.263Z,37.96
2022-08-03T23:22:03.323Z,38.00
2022-08-03T23:24:35.832Z,38.01
2022-08-03T23:27:07.158Z,38.18
2022-08-03T23:29:37.071Z,38.05
2022-08-03T23:32:06.231Z,38.28
2022-08-03T23:34:52.617Z,38.25
2022-08-03T23:37:21.855Z,38.12
2022-08-03T23:39:50.715Z,38.00
2022-08-03T23:42:21.345Z,38.11
2022-08-03T23:44:53.676Z,38.08
2022-08-03T23:47:22.619Z,38.20
2022-08-03T23:49:51.988Z,38.08
2022-08-03T23:52:29.357Z,38.31
2022-08-03T23:55:08.666Z,38.08
2022-08-03T23:57:44.885Z,38.31
